| time (UTC) | temp C | wind direction | speed KPH | gust KPH | rain 1hr cm | rain 24hr cm | rain mn cm | humidity % | barometer mb |
| 20260502233042 | 19 | 96 | 1.6 | 14.5 | 0.00 | 0.00 | 0.00 | 35 | 1014.6 |
| 20260502231541 | 20 | 109 | 1.6 | 9.7 | 0.00 | 0.00 | 0.00 | 34 | 1014.9 |
| 20260502230050 | 19 | 52 | 6.4 | 12.9 | 0.00 | 0.00 | 0.00 | 34 | 1015.1 |
| 20260502224545 | 20 | 127 | 3.2 | 8.0 | 0.00 | 0.00 | 0.00 | 35 | 1015.1 |
| 20260502223047 | 19 | 105 | 4.8 | 11.3 | 0.00 | 0.00 | 0.00 | 36 | 1015.4 |
| 20260502221546 | 19 | 93 | 3.2 | 11.3 | 0.00 | 0.00 | 0.00 | 35 | 1015.7 |
| 20260502220042 | 19 | 47 | 0.0 | 11.3 | 0.00 | 0.00 | 0.00 | 36 | 1015.7 |
| 20260502214549 | 18 | 340 | 3.2 | 16.1 | 0.00 | 0.00 | 0.00 | 36 | 1015.9 |
| 20260502213048 | 18 | 107 | 8.0 | 20.9 | 0.00 | 0.00 | 0.00 | 38 | 1016.2 |
| 20260502211546 | 18 | 45 | 8.0 | 20.9 | 0.00 | 0.00 | 0.00 | 37 | 1016.3 |
| 20260502210047 | 18 | 87 | 6.4 | 19.3 | 0.00 | 0.00 | 0.00 | 36 | 1016.5 |
| 20260502204545 | 18 | 111 | 4.8 | 22.5 | 0.00 | 0.00 | 0.00 | 35 | 1016.5 |
| 20260502203042 | 18 | 106 | 4.8 | 12.9 | 0.00 | 0.00 | 0.00 | 37 | 1016.8 |
| 20260502201541 | 18 | 97 | 3.2 | 11.3 | 0.00 | 0.00 | 0.00 | 36 | 1017.1 |
| 20260502200050 | 18 | 115 | 3.2 | 12.9 | 0.00 | 0.00 | 0.00 | 34 | 1017.2 |
| 20260502194547 | 18 | 106 | 3.2 | 12.9 | 0.00 | 0.00 | 0.00 | 33 | 1017.5 |
| 20260502193044 | 18 | 156 | 3.2 | 9.7 | 0.00 | 0.00 | 0.00 | 35 | 1017.6 |
| 20260502191546 | 18 | 84 | 3.2 | 9.7 | 0.00 | 0.00 | 0.00 | 36 | 1017.6 |
| 20260502190045 | 17 | 141 | 3.2 | 11.3 | 0.00 | 0.00 | 0.00 | 37 | 1017.7 |
| 20260502184600 | 17 | 142 | 3.2 | 9.7 | 0.00 | 0.00 | 0.00 | 41 | 1018.0 |
| 20260502183056 | 18 | 126 | 4.8 | 12.9 | 0.00 | 0.00 | 0.00 | 41 | 1017.9 |
| 20260502181553 | 17 | 119 | 1.6 | 8.0 | 0.00 | 0.00 | 0.00 | 44 | 1018.0 |
| 20260502163053 | 16 | 123 | 1.6 | 6.4 | 0.00 | 0.00 | 0.00 | 51 | 1018.2 |
| 20260502161542 | 15 | 96 | 4.8 | 8.0 | 0.00 | 0.00 | 0.00 | 58 | 1018.2 |
| 20260502151547 | 14 | 132 | 0.0 | 3.2 | 0.00 | 0.00 | 0.00 | 59 | 1018.2 |
| 20260502123059 | 10 | 101 | 0.0 | 4.8 | 0.00 | 0.00 | 0.00 | 70 | 1017.6 |
| 20260502121547 | 10 | 109 | 0.0 | 8.0 | 0.00 | 0.00 | 0.00 | 70 | 1017.7 |
| 20260502114550 | 10 | 0 | 0.0 | 1.6 | 0.00 | 0.00 | 0.00 | 65 | 1017.3 |
| 20260502113051 | 10 | 0 | 0.0 | 1.6 | 0.00 | 0.00 | 0.00 | 62 | 1017.2 |
| 20260502111551 | 9 | 0 | 0.0 | 1.6 | 0.00 | 0.00 | 0.00 | 63 | 1017.0 |
| 20260502110056 | 9 | 0 | 0.0 | 1.6 | 0.00 | 0.00 | 0.00 | 62 | 1017.2 |
| 20260502104550 | 10 | 0 | 0.0 | 1.6 | 0.00 | 0.00 | 0.00 | 61 | 1017.2 |
| 20260502103045 | 10 | 0 | 0.0 | 0.0 | 0.00 | 0.00 | 0.00 | 61 | 1016.8 |
| 20260502101611 | 10 | 0 | 0.0 | 0.0 | 0.00 | 0.00 | 0.00 | 60 | 1016.8 |
| 20260502070053 | 12 | 0 | 0.0 | 4.8 | 0.00 | 0.00 | 0.00 | 50 | 1015.5 |
| 20260502064551 | 13 | 225 | 1.6 | 6.4 | 0.00 | 0.00 | 0.00 | 49 | 1015.3 |
| 20260502063048 | 13 | 224 | 0.0 | 6.4 | 0.00 | 0.00 | 0.00 | 48 | 1015.1 |
| 20260502061542 | 13 | 217 | 0.0 | 4.8 | 0.00 | 0.00 | 0.00 | 48 | 1014.9 |
| 20260502060050 | 13 | 217 | 1.6 | 11.3 | 0.00 | 0.00 | 0.00 | 47 | 1014.6 |
| 20260502054541 | 15 | 171 | 4.8 | 12.9 | 0.00 | 0.00 | 0.00 | 45 | 1014.4 |
| 20260502053106 | 15 | 212 | 1.6 | 11.3 | 0.00 | 0.00 | 0.00 | 43 | 1014.2 |
| 20260502051548 | 15 | 196 | 1.6 | 11.3 | 0.00 | 0.00 | 0.00 | 41 | 1013.7 |
| 20260502050046 | 14 | 155 | 1.6 | 11.3 | 0.00 | 0.00 | 0.00 | 43 | 1013.7 |
| 20260502044543 | 13 | 0 | 0.0 | 0.0 | 0.00 | 0.00 | 0.00 | 45 | 1013.1 |
| 20260502043043 | 13 | 0 | 0.0 | 1.6 | 0.00 | 0.00 | 0.00 | 43 | 1012.7 |
| 20260502041543 | 15 | 236 | 1.6 | 4.8 | 0.00 | 0.00 | 0.00 | 41 | 1012.7 |
| 20260502040044 | 16 | 140 | 0.0 | 1.6 | 0.00 | 0.00 | 0.00 | 38 | 1012.3 |
| 20260502034547 | 16 | 0 | 0.0 | 1.6 | 0.00 | 0.00 | 0.00 | 36 | 1012.2 |
| 20260502033056 | 16 | 140 | 0.0 | 1.6 | 0.00 | 0.00 | 0.00 | 34 | 1012.1 |
| 20260502031549 | 17 | 0 | 0.0 | 0.0 | 0.00 | 0.00 | 0.00 | 32 | 1012.0 |
| 20260502030055 | 18 | 0 | 0.0 | 0.0 | 0.00 | 0.00 | 0.00 | 30 | 1012.0 |
| 20260502024545 | 18 | 0 | 0.0 | 0.0 | 0.00 | 0.00 | 0.00 | 30 | 1011.9 |
| 20260502023103 | 20 | 0 | 0.0 | 0.0 | 0.00 | 0.00 | 0.00 | 27 | 1011.9 |
| 20260502021545 | 21 | 0 | 0.0 | 0.0 | 0.00 | 0.00 | 0.00 | 25 | 1011.9 |
| 20260502020042 | 22 | 0 | 0.0 | 1.6 | 0.00 | 0.00 | 0.00 | 24 | 1011.8 |
| 20260502014549 | 22 | 0 | 0.0 | 1.6 | 0.00 | 0.00 | 0.00 | 24 | 1011.8 |
| 20260502013046 | 22 | 0 | 0.0 | 3.2 | 0.00 | 0.00 | 0.00 | 24 | 1011.8 |
| 20260502011555 | 22 | 129 | 1.6 | 4.8 | 0.00 | 0.00 | 0.00 | 23 | 1011.9 |
| 20260502010047 | 22 | 126 | 1.6 | 8.0 | 0.00 | 0.00 | 0.00 | 24 | 1012.1 |
| 20260502004557 | 22 | 98 | 1.6 | 9.7 | 0.00 | 0.00 | 0.00 | 24 | 1012.3 |
| 20260502003042 | 22 | 100 | 3.2 | 8.0 | 0.00 | 0.00 | 0.00 | 24 | 1012.3 |
| 20260502001538 | 22 | 128 | 3.2 | 8.0 | 0.00 | 0.00 | 0.00 | 23 | 1012.4 |
| 20260502000047 | 22 | 131 | 4.8 | 11.3 | 0.00 | 0.00 | 0.00 | 23 | 1012.4 |
| 20260501234546 | 22 | 118 | 3.2 | 11.3 | 0.00 | 0.00 | 0.00 | 23 | 1012.4 |